Time;durP1;ratioP1;P1;durP2;ratioP2;P2;SDS_P1;SDS_P2;PMS_P1;PMS_P2;Temp;Humidity;BMP_temperature;BMP_pressure;BME280_temperature;BME280_humidity;BME280_pressure;Samples;Min_cycle;Max_cycle;Signal;HPM_P1;HPM_P2
2022/11/26 00:02:15;;;;;;;24.08;15.68;;;7.20;99.90;;;;;;5068609;28;20031;-59
2022/11/26 00:05:01;;;;;;;21.50;15.25;;;7.30;99.90;;;;;;5060706;28;20051;-60
2022/11/26 00:07:54;;;;;;;20.60;16.02;;;7.20;99.90;;;;;;5072183;28;20109;-60
2022/11/26 00:10:40;;;;;;;24.83;16.02;;;7.20;99.90;;;;;;5074051;28;20031;-60
2022/11/26 00:13:29;;;;;;;26.67;16.77;;;7.20;99.90;;;;;;5058611;28;20028;-58
2022/11/26 00:16:15;;;;;;;20.50;16.40;;;7.20;99.90;;;;;;5092120;28;20024;-61
2022/11/26 00:19:01;;;;;;;23.33;16.60;;;7.20;99.90;;;;;;5082166;28;20116;-60
2022/11/26 00:21:47;;;;;;;25.20;15.73;;;7.20;99.90;;;;;;5090368;28;20067;-59
2022/11/26 00:24:33;;;;;;;26.27;17.30;;;7.20;99.90;;;;;;5080107;28;20111;-60
2022/11/26 00:27:19;;;;;;;30.95;17.73;;;7.30;99.90;;;;;;5073491;28;20475;-60
2022/11/26 00:30:14;;;;;;;28.25;16.13;;;7.30;99.90;;;;;;5071851;28;20036;-60
2022/11/26 00:33:00;;;;;;;25.63;16.38;;;7.30;99.90;;;;;;5082016;28;20063;-61
2022/11/26 00:35:48;;;;;;;24.50;16.08;;;7.20;99.90;;;;;;5086395;28;20081;-59
2022/11/26 00:38:34;;;;;;;19.92;16.27;;;7.20;99.90;;;;;;5089287;28;20060;-62
2022/11/26 00:41:23;;;;;;;20.77;15.57;;;7.30;99.90;;;;;;5080905;28;20035;-60
2022/11/26 00:44:24;;;;;;;29.98;17.15;;;7.30;99.90;;;;;;5081902;28;20028;-60
2022/11/26 00:47:10;;;;;;;27.58;16.77;;;7.10;99.90;;;;;;5087494;28;20160;-58
2022/11/26 00:49:56;;;;;;;22.92;16.45;;;7.20;99.90;;;;;;5076400;28;20530;-59
2022/11/26 00:52:42;;;;;;;24.60;17.05;;;7.20;99.90;;;;;;5056439;28;20033;-61
2022/11/26 00:55:49;;;;;;;26.90;17.77;;;7.10;99.90;;;;;;5083793;28;20040;-59
2022/11/26 00:58:36;;;;;;;22.92;16.63;;;7.10;99.90;;;;;;5090494;28;20024;-59
2022/11/26 01:01:29;;;;;;;24.48;17.88;;;7.30;99.90;;;;;;5056584;28;20033;-58
2022/11/26 01:04:15;;;;;;;25.45;18.02;;;7.20;99.90;;;;;;5071323;28;20489;-57
2022/11/26 01:07:01;;;;;;;29.40;17.33;;;7.30;99.90;;;;;;5072505;28;20032;-59
2022/11/26 01:09:49;;;;;;;26.67;16.98;;;7.30;99.90;;;;;;5072020;28;20029;-59
2022/11/26 01:12:35;;;;;;;25.13;17.83;;;7.20;99.90;;;;;;5057266;28;20063;-60
2022/11/26 01:15:23;;;;;;;28.38;17.67;;;7.20;99.90;;;;;;5089359;28;20034;-60
2022/11/26 01:18:17;;;;;;;31.67;17.60;;;7.10;99.90;;;;;;5076175;28;20028;-59
2022/11/26 01:21:02;;;;;;;27.23;17.67;;;7.20;99.90;;;;;;5086064;28;20042;-59
2022/11/26 01:23:48;;;;;;;26.15;18.15;;;7.20;99.90;;;;;;5071615;28;20407;-59
2022/11/26 01:26:40;;;;;;;33.08;18.10;;;7.10;99.90;;;;;;5099107;28;20501;-60
2022/11/26 01:29:26;;;;;;;25.20;17.85;;;7.20;99.90;;;;;;5095493;28;20019;-59
2022/11/26 01:32:12;;;;;;;31.48;18.00;;;7.10;99.90;;;;;;5111398;28;20067;-57
2022/11/26 01:34:58;;;;;;;28.05;18.33;;;7.20;99.90;;;;;;5091644;28;20033;-56
2022/11/26 01:37:45;;;;;;;26.25;18.75;;;7.30;99.90;;;;;;5055349;28;20111;-59
2022/11/26 01:40:47;;;;;;;27.38;19.08;;;7.40;99.90;;;;;;5070750;28;20115;-59
2022/11/26 01:43:39;;;;;;;27.55;18.23;;;7.30;99.90;;;;;;5078545;28;20040;-58
2022/11/26 01:46:29;;;;;;;28.92;19.67;;;7.10;99.90;;;;;;5069587;28;20021;-59
2022/11/26 01:49:17;;;;;;;28.77;19.42;;;7.10;99.90;;;;;;5084366;28;20032;-59
2022/11/26 01:52:11;;;;;;;26.00;17.58;;;7.10;99.90;;;;;;5076433;28;20032;-57
2022/11/26 01:54:57;;;;;;;31.42;19.05;;;7.10;99.90;;;;;;5071959;28;20048;-60
2022/11/26 01:57:44;;;;;;;30.83;19.27;;;7.20;99.90;;;;;;5072324;28;20087;-58
2022/11/26 02:00:30;;;;;;;26.40;18.98;;;7.10;99.90;;;;;;5091332;28;20025;-54
2022/11/26 02:03:18;;;;;;;26.20;18.45;;;7.10;99.90;;;;;;5074282;28;20032;-59
2022/11/26 02:06:12;;;;;;;29.58;18.58;;;7.20;99.90;;;;;;5091900;28;20028;-60
2022/11/26 02:09:01;;;;;;;24.45;18.55;;;7.10;99.90;;;;;;5081508;28;20025;-58
2022/11/26 02:11:47;;;;;;;27.65;18.60;;;7.10;99.90;;;;;;5072934;28;20400;-59
2022/11/26 02:14:37;;;;;;;27.05;18.65;;;7.20;99.90;;;;;;5088848;28;20158;-57
2022/11/26 02:17:44;;;;;;;27.83;18.65;;;7.20;99.90;;;;;;5091746;28;20028;-56
2022/11/26 02:20:45;;;;;;;28.08;19.70;;;7.20;99.90;;;;;;5072904;28;20024;-59
2022/11/26 02:23:49;;;;;;;30.90;19.23;;;7.20;99.90;;;;;;5076101;28;20028;-57
2022/11/26 02:26:57;;;;;;;24.27;17.88;;;7.20;99.90;;;;;;5079298;28;20025;-53
2022/11/26 02:30:07;;;;;;;28.73;18.92;;;7.30;99.90;;;;;;5088103;28;20148;-57
2022/11/26 02:33:01;;;;;;;29.73;19.70;;;7.20;99.90;;;;;;5077575;28;20032;-60
2022/11/26 02:35:53;;;;;;;31.50;20.42;;;7.20;99.90;;;;;;5071990;28;20043;-58
2022/11/26 02:38:40;;;;;;;33.58;21.38;;;7.20;99.90;;;;;;5079960;28;20051;-58
2022/11/26 02:41:32;;;;;;;28.40;21.52;;;7.10;99.90;;;;;;5093010;28;20031;-58
2022/11/26 02:44:22;;;;;;;38.13;22.95;;;7.10;99.90;;;;;;5063820;28;20025;-55
2022/11/26 02:47:11;;;;;;;33.60;21.80;;;7.00;99.90;;;;;;5086068;28;20030;-55
2022/11/26 02:50:01;;;;;;;29.45;20.60;;;7.10;99.90;;;;;;5072818;28;20115;-59
2022/11/26 02:52:49;;;;;;;30.50;21.88;;;7.10;99.90;;;;;;5073718;28;20527;-59
2022/11/26 02:55:40;;;;;;;35.45;21.20;;;7.10;99.90;;;;;;5092034;28;20032;-59
2022/11/26 02:58:26;;;;;;;35.35;21.92;;;7.10;99.90;;;;;;5084594;28;20021;-60
2022/11/26 03:01:18;;;;;;;34.08;22.13;;;7.10;99.90;;;;;;5057943;28;20033;-59
2022/11/26 03:04:17;;;;;;;39.28;24.10;;;7.00;99.90;;;;;;5072004;28;20056;-60
2022/11/26 03:07:05;;;;;;;34.30;22.05;;;7.00;99.90;;;;;;5080418;28;20024;-59
2022/11/26 03:09:57;;;;;;;38.03;23.38;;;7.10;99.90;;;;;;5089421;28;20548;-59
2022/11/26 03:12:43;;;;;;;32.08;23.70;;;7.20;99.90;;;;;;5071247;28;20037;-58
2022/11/26 03:15:30;;;;;;;35.83;23.92;;;7.10;99.90;;;;;;5078322;28;20036;-57
2022/11/26 03:18:16;;;;;;;31.60;21.88;;;7.10;99.90;;;;;;5075757;28;20028;-60
2022/11/26 03:21:01;;;;;;;29.23;21.85;;;7.10;99.90;;;;;;5080591;28;20025;-60
2022/11/26 03:23:47;;;;;;;37.88;23.33;;;7.10;99.90;;;;;;5070633;28;20115;-58
2022/11/26 03:26:33;;;;;;;37.15;22.15;;;7.10;99.90;;;;;;5085477;28;20059;-56
2022/11/26 03:29:19;;;;;;;31.60;21.83;;;7.20;99.90;;;;;;5076780;28;20032;-58
2022/11/26 03:32:05;;;;;;;32.70;22.23;;;7.20;99.90;;;;;;5058712;28;20036;-60
2022/11/26 03:34:51;;;;;;;28.27;21.45;;;7.10;99.90;;;;;;5079099;28;20032;-57
2022/11/26 03:37:38;;;;;;;32.67;22.48;;;7.10;99.90;;;;;;5089225;28;20035;-60
2022/11/26 03:40:24;;;;;;;33.55;22.23;;;7.20;99.90;;;;;;5072356;28;20040;-58
2022/11/26 03:43:09;;;;;;;35.30;22.95;;;7.10;99.90;;;;;;5077901;28;20024;-58
2022/11/26 03:45:56;;;;;;;32.70;22.30;;;7.20;99.90;;;;;;5076683;28;20119;-59
2022/11/26 03:48:42;;;;;;;31.58;21.88;;;7.20;99.90;;;;;;5080918;28;20021;-57
2022/11/26 03:51:28;;;;;;;32.65;22.35;;;7.10;99.90;;;;;;5071063;28;20040;-57
2022/11/26 03:54:14;;;;;;;39.70;24.95;;;7.00;99.90;;;;;;5084911;28;20036;-60
2022/11/26 03:57:00;;;;;;;33.83;22.55;;;7.00;99.90;;;;;;5090266;28;20027;-61
2022/11/26 03:59:45;;;;;;;34.70;24.20;;;7.00;99.90;;;;;;5057730;28;20029;-61
2022/11/26 04:02:32;;;;;;;32.58;22.50;;;7.00;99.90;;;;;;5056799;28;20111;-58
2022/11/26 04:05:18;;;;;;;38.00;23.48;;;7.10;99.90;;;;;;5091496;28;20077;-60
2022/11/26 04:08:04;;;;;;;33.97;22.80;;;7.10;99.90;;;;;;5089487;28;20496;-59
2022/11/26 04:10:50;;;;;;;33.00;23.15;;;7.10;99.90;;;;;;5071612;28;20502;-60
2022/11/26 04:13:35;;;;;;;36.90;22.70;;;7.10;99.90;;;;;;5076448;28;20039;-61
2022/11/26 04:16:21;;;;;;;31.40;22.67;;;7.10;99.90;;;;;;5074975;28;20500;-59
2022/11/26 04:19:07;;;;;;;34.55;23.15;;;7.00;99.90;;;;;;5088893;28;20036;-56
2022/11/26 04:21:53;;;;;;;37.65;23.17;;;7.00;99.90;;;;;;5089699;28;20078;-57
2022/11/26 04:24:39;;;;;;;33.30;23.50;;;7.00;99.90;;;;;;5077089;28;20028;-59
2022/11/26 04:27:25;;;;;;;34.00;22.15;;;6.90;99.90;;;;;;5071550;28;20025;-60
2022/11/26 04:30:12;;;;;;;30.70;21.58;;;6.90;99.90;;;;;;5089957;28;20028;-58
2022/11/26 04:32:58;;;;;;;33.20;22.58;;;6.90;99.90;;;;;;5084933;28;20038;-57
2022/11/26 04:35:44;;;;;;;34.13;23.40;;;6.90;99.90;;;;;;5071356;28;20036;-59
2022/11/26 04:38:30;;;;;;;35.45;23.60;;;7.00;99.90;;;;;;5079818;28;20039;-60
2022/11/26 04:41:16;;;;;;;35.97;23.05;;;7.00;99.90;;;;;;5083640;28;20463;-62
2022/11/26 04:44:02;;;;;;;35.70;23.50;;;7.00;99.90;;;;;;5071204;28;20037;-57
2022/11/26 04:46:48;;;;;;;37.70;24.02;;;7.00;99.90;;;;;;5080882;28;20024;-57
2022/11/26 04:49:33;;;;;;;35.75;24.45;;;6.90;99.90;;;;;;5089178;28;20065;-55
2022/11/26 04:52:19;;;;;;;34.10;22.80;;;6.80;99.90;;;;;;5074449;28;20090;-57
2022/11/26 04:55:06;;;;;;;35.72;24.17;;;7.00;99.90;;;;;;5086541;28;20040;-59
2022/11/26 04:57:51;;;;;;;36.75;23.13;;;6.90;99.90;;;;;;5089130;28;20032;-58
2022/11/26 05:00:37;;;;;;;36.45;24.40;;;6.90;99.90;;;;;;5069793;28;20060;-59
2022/11/26 05:03:23;;;;;;;38.30;23.75;;;6.90;99.90;;;;;;5070547;28;20031;-58
2022/11/26 05:06:10;;;;;;;37.90;23.50;;;6.90;99.90;;;;;;5070499;28;20032;-56
2022/11/26 05:08:56;;;;;;;33.28;23.92;;;6.90;99.90;;;;;;5072410;28;20137;-54
2022/11/26 05:11:42;;;;;;;35.67;25.23;;;6.80;99.90;;;;;;5089820;28;20051;-59
2022/11/26 05:14:28;;;;;;;36.00;25.27;;;6.80;99.90;;;;;;5081103;28;20406;-57
2022/11/26 05:17:14;;;;;;;34.78;23.30;;;6.80;99.90;;;;;;5069549;28;20453;-57
2022/11/26 05:19:59;;;;;;;37.42;24.20;;;6.90;99.90;;;;;;5071284;28;20495;-56
2022/11/26 05:22:45;;;;;;;43.17;25.45;;;6.90;99.90;;;;;;5088335;28;20040;-57
2022/11/26 05:25:31;;;;;;;33.35;24.30;;;7.00;99.90;;;;;;5092087;28;20027;-61
2022/11/26 05:28:17;;;;;;;34.60;24.88;;;7.00;99.90;;;;;;5087395;28;20032;-61
2022/11/26 05:31:04;;;;;;;40.58;25.90;;;7.00;99.90;;;;;;5113098;28;20024;-56
2022/11/26 05:33:49;;;;;;;34.90;24.70;;;7.00;99.90;;;;;;5113692;28;20059;-56
2022/11/26 05:36:35;;;;;;;43.10;25.95;;;6.90;99.90;;;;;;5095257;28;20502;-60
2022/11/26 05:39:21;;;;;;;36.40;24.58;;;6.80;99.90;;;;;;5074171;28;20025;-59
2022/11/26 05:42:07;;;;;;;40.42;26.70;;;6.70;99.90;;;;;;5086652;28;20040;-59
2022/11/26 05:44:53;;;;;;;44.25;24.95;;;6.70;99.90;;;;;;5074179;28;20055;-60
2022/11/26 05:47:39;;;;;;;39.03;25.73;;;6.70;99.90;;;;;;5074035;28;20044;-60
2022/11/26 05:50:25;;;;;;;43.67;27.08;;;6.60;99.90;;;;;;5079815;28;20043;-56
2022/11/26 05:53:11;;;;;;;37.88;26.48;;;6.50;99.90;;;;;;5092478;28;20039;-54
2022/11/26 05:55:58;;;;;;;38.08;26.73;;;6.50;99.90;;;;;;5081415;28;20512;-58
2022/11/26 05:58:44;;;;;;;41.55;25.67;;;6.50;99.90;;;;;;5073701;28;20028;-59
2022/11/26 06:01:30;;;;;;;41.75;26.38;;;6.50;99.90;;;;;;5074807;28;20035;-59
2022/11/26 06:04:15;;;;;;;39.00;26.65;;;6.50;99.90;;;;;;5057164;28;20029;-56
2022/11/26 06:07:01;;;;;;;41.03;25.48;;;6.50;99.90;;;;;;5091294;28;20063;-61
2022/11/26 06:09:47;;;;;;;37.05;25.55;;;6.50;99.90;;;;;;5085899;28;20028;-60
2022/11/26 06:12:34;;;;;;;44.25;27.10;;;6.40;99.90;;;;;;5073359;28;20028;-59
2022/11/26 06:15:20;;;;;;;38.88;25.38;;;6.40;99.90;;;;;;5083813;28;20539;-59
2022/11/26 06:18:06;;;;;;;42.38;27.40;;;6.50;99.90;;;;;;5092072;28;20036;-59
2022/11/26 06:20:51;;;;;;;41.85;25.67;;;6.30;99.90;;;;;;5077640;28;20111;-56
2022/11/26 06:23:37;;;;;;;39.40;27.58;;;6.40;99.90;;;;;;5073389;28;20452;-59
2022/11/26 06:26:24;;;;;;;43.22;27.13;;;6.40;99.90;;;;;;5090137;28;20028;-60
2022/11/26 06:29:09;;;;;;;38.58;25.63;;;6.20;99.90;;;;;;5092598;28;20020;-58
2022/11/26 06:31:55;;;;;;;43.72;28.02;;;6.30;99.90;;;;;;5057756;28;20033;-60
2022/11/26 06:34:41;;;;;;;42.58;26.52;;;6.30;99.90;;;;;;5071978;28;20443;-59
2022/11/26 06:37:27;;;;;;;36.00;26.00;;;6.30;99.90;;;;;;5072192;28;20455;-60
2022/11/26 06:40:17;;;;;;;39.22;25.08;;;6.40;99.90;;;;;;5075103;28;20107;-60
2022/11/26 06:43:03;;;;;;;37.50;26.65;;;6.50;99.90;;;;;;5091733;28;20031;-58
2022/11/26 06:45:49;;;;;;;36.30;25.60;;;6.50;99.90;;;;;;5043651;28;20035;-60
2022/11/26 06:48:36;;;;;;;42.92;25.48;;;6.50;99.90;;;;;;5076102;28;20027;-60
2022/11/26 06:51:26;;;;;;;38.33;25.35;;;6.60;99.90;;;;;;5091430;28;20039;-57
2022/11/26 06:54:12;;;;;;;35.67;24.02;;;6.60;99.90;;;;;;5083084;28;20086;-57
2022/11/26 06:56:58;;;;;;;39.60;26.23;;;6.70;99.90;;;;;;5073332;28;20021;-59
2022/11/26 06:59:44;;;;;;;36.65;24.33;;;6.50;99.90;;;;;;5076451;28;20020;-61
2022/11/26 07:02:30;;;;;;;39.55;24.45;;;6.50;99.90;;;;;;5072192;28;20033;-60
2022/11/26 07:05:16;;;;;;;39.72;24.90;;;6.30;99.90;;;;;;5092647;28;20024;-58
2022/11/26 07:08:02;;;;;;;33.33;22.48;;;6.40;99.90;;;;;;5082759;28;20044;-57
2022/11/26 07:10:48;;;;;;;35.90;23.88;;;6.50;99.90;;;;;;5072845;28;20059;-60
2022/11/26 07:13:34;;;;;;;39.45;23.83;;;6.50;99.90;;;;;;5068374;28;20032;-61
2022/11/26 07:16:20;;;;;;;44.25;24.33;;;6.50;99.90;;;;;;5091387;28;20073;-59
2022/11/26 07:19:06;;;;;;;38.85;23.70;;;6.50;99.90;;;;;;5075802;28;20040;-59
2022/11/26 07:21:53;;;;;;;33.45;22.63;;;6.50;99.90;;;;;;5072163;28;20033;-57
2022/11/26 07:24:39;;;;;;;35.72;23.98;;;6.50;99.90;;;;;;5073434;28;20052;-59
2022/11/26 07:27:25;;;;;;;37.80;25.10;;;6.50;99.90;;;;;;5072447;28;20089;-54
2022/11/26 07:30:12;;;;;;;35.55;24.02;;;6.40;99.90;;;;;;5071815;28;20055;-59
2022/11/26 07:32:58;;;;;;;36.95;25.30;;;6.50;99.90;;;;;;5090896;28;20033;-58
2022/11/26 07:35:44;;;;;;;32.72;22.20;;;6.60;99.90;;;;;;5086078;28;20073;-57
2022/11/26 07:38:31;;;;;;;35.67;23.15;;;6.60;99.90;;;;;;5072218;28;20162;-59
2022/11/26 07:41:18;;;;;;;43.92;24.85;;;6.50;99.90;;;;;;5080414;28;20420;-60
2022/11/26 07:44:04;;;;;;;40.80;24.52;;;6.50;99.90;;;;;;5083430;28;20474;-59
2022/11/26 07:46:50;;;;;;;35.65;22.35;;;6.40;99.90;;;;;;5071119;28;20035;-62
2022/11/26 07:49:36;;;;;;;38.33;24.02;;;6.40;99.90;;;;;;5082764;28;20028;-60
2022/11/26 07:52:22;;;;;;;39.40;24.52;;;6.40;99.90;;;;;;5075937;28;20078;-61
2022/11/26 07:55:13;;;;;;;36.50;23.20;;;6.40;99.90;;;;;;5075000;28;20079;-54
2022/11/26 07:57:59;;;;;;;40.30;24.77;;;6.60;99.90;;;;;;5070306;28;20539;-56
2022/11/26 08:00:45;;;;;;;42.22;24.55;;;6.60;99.90;;;;;;5086475;28;20554;-53
2022/11/26 08:03:31;;;;;;;36.42;23.67;;;6.70;99.90;;;;;;5089409;28;20030;-56
2022/11/26 08:06:20;;;;;;;38.70;24.15;;;6.80;99.90;;;;;;5070013;28;20024;-54
2022/11/26 08:09:06;;;;;;;34.45;22.83;;;6.70;99.90;;;;;;5071849;28;20044;-54
2022/11/26 08:11:52;;;;;;;42.67;24.58;;;6.80;99.90;;;;;;5071202;28;20033;-52
2022/11/26 08:14:38;;;;;;;36.17;22.90;;;6.80;99.90;;;;;;5078453;28;20028;-55
2022/11/26 08:17:27;;;;;;;36.60;23.83;;;6.90;99.90;;;;;;5070301;28;20032;-58
2022/11/26 08:20:13;;;;;;;36.80;24.02;;;6.70;99.90;;;;;;5082694;28;20056;-51
2022/11/26 08:22:59;;;;;;;39.58;23.45;;;6.70;99.90;;;;;;5089616;28;20051;-54
2022/11/26 08:25:45;;;;;;;35.90;24.30;;;6.80;99.90;;;;;;5072652;28;20511;-50
2022/11/26 08:28:30;;;;;;;48.05;24.23;;;6.80;99.90;;;;;;5071784;28;20107;-54
2022/11/26 08:31:17;;;;;;;35.70;23.00;;;6.80;99.90;;;;;;5057019;28;20024;-54
2022/11/26 08:34:03;;;;;;;36.25;22.88;;;6.90;99.90;;;;;;5088543;28;20024;-58
2022/11/26 08:36:49;;;;;;;32.28;21.58;;;7.00;99.90;;;;;;5069620;28;20055;-57
2022/11/26 08:39:35;;;;;;;34.88;24.98;;;7.00;99.90;;;;;;5076103;28;20024;-57
2022/11/26 08:42:20;;;;;;;38.20;23.67;;;7.00;99.90;;;;;;5089233;28;20025;-57
2022/11/26 08:45:07;;;;;;;37.40;21.80;;;6.90;99.90;;;;;;5080408;28;20562;-56
2022/11/26 08:47:54;;;;;;;39.63;22.88;;;7.10;99.90;;;;;;5069469;28;20489;-55
2022/11/26 08:50:40;;;;;;;40.85;21.85;;;7.10;99.90;;;;;;5067714;28;20060;-55
2022/11/26 08:53:30;;;;;;;31.48;20.00;;;7.10;99.90;;;;;;5079204;28;20041;-54
2022/11/26 08:56:16;;;;;;;32.58;20.33;;;7.40;99.90;;;;;;5079217;28;20039;-57
2022/11/26 08:59:02;;;;;;;31.85;18.27;;;7.50;99.90;;;;;;5060560;28;20097;-54
2022/11/26 09:01:48;;;;;;;27.77;18.98;;;7.50;99.90;;;;;;5080517;28;20078;-55
2022/11/26 09:04:34;;;;;;;34.72;19.33;;;7.60;99.90;;;;;;5073396;28;20031;-55
2022/11/26 09:07:20;;;;;;;32.72;18.42;;;7.60;99.90;;;;;;5091602;28;20506;-52
2022/11/26 09:10:06;;;;;;;33.58;18.92;;;7.60;99.90;;;;;;5093039;28;20039;-57
2022/11/26 09:12:52;;;;;;;30.50;19.42;;;7.60;99.90;;;;;;5075014;28;20029;-53
2022/11/26 09:15:38;;;;;;;32.15;19.45;;;7.70;99.90;;;;;;5076085;28;20025;-54
2022/11/26 09:18:24;;;;;;;35.72;19.40;;;7.50;99.90;;;;;;5062524;28;20395;-55
2022/11/26 09:21:10;;;;;;;33.78;20.17;;;7.50;99.90;;;;;;5074404;28;20570;-52
2022/11/26 09:23:56;;;;;;;29.30;19.15;;;7.40;99.90;;;;;;5093580;28;20122;-58
2022/11/26 09:26:43;;;;;;;32.80;19.38;;;7.40;99.90;;;;;;5092021;28;20028;-56
2022/11/26 09:29:29;;;;;;;29.60;16.50;;;7.50;99.90;;;;;;5098436;28;20032;-58
2022/11/26 09:32:15;;;;;;;32.67;16.83;;;7.70;99.90;;;;;;5113784;28;20131;-58
2022/11/26 09:35:01;;;;;;;33.38;17.33;;;7.80;99.90;;;;;;5103211;28;20024;-57
2022/11/26 09:37:47;;;;;;;28.92;16.95;;;7.80;99.90;;;;;;5093496;28;20029;-57
2022/11/26 09:40:46;;;;;;;28.00;16.48;;;7.90;99.90;;;;;;5110818;28;20044;-57
2022/11/26 09:43:55;;;;;;;27.73;15.45;;;7.90;99.90;;;;;;5106119;28;20027;-59
2022/11/26 09:46:47;;;;;;;33.30;15.30;;;8.00;99.90;;;;;;5099862;28;20028;-59
2022/11/26 09:49:58;;;;;;;24.83;14.82;;;8.10;99.90;;;;;;5092478;28;20043;-58
2022/11/26 09:53:01;;;;;;;27.90;14.73;;;8.10;99.90;;;;;;5091017;28;20048;-58
2022/11/26 09:55:49;;;;;;;25.15;15.48;;;8.10;99.90;;;;;;5089533;28;20028;-56
2022/11/26 09:58:56;;;;;;;27.02;14.05;;;8.20;99.90;;;;;;5096066;28;20027;-61
2022/11/26 10:01:42;;;;;;;23.50;12.95;;;8.20;99.90;;;;;;5111741;28;20046;-58
2022/11/26 10:04:34;;;;;;;23.75;13.23;;;8.30;99.90;;;;;;5071681;28;20031;-58
2022/11/26 10:07:46;;;;;;;26.63;13.38;;;8.30;99.90;;;;;;5063528;28;20496;-60
2022/11/26 10:10:55;;;;;;;27.30;13.23;;;8.20;99.90;;;;;;5071290;28;20043;-61
2022/11/26 10:13:47;;;;;;;24.05;13.07;;;8.20;99.90;;;;;;5073193;28;20033;-61
2022/11/26 10:16:57;;;;;;;21.35;12.93;;;8.30;99.90;;;;;;5071729;28;20459;-62
2022/11/26 10:20:11;;;;;;;22.05;11.75;;;8.40;99.90;;;;;;5086568;28;20503;-64
2022/11/26 10:23:12;;;;;;;21.95;12.10;;;8.50;99.90;;;;;;5092043;28;20028;-62
2022/11/26 10:26:11;;;;;;;21.20;11.20;;;8.60;99.90;;;;;;5072880;28;20047;-61
2022/11/26 10:29:13;;;;;;;21.33;11.40;;;8.60;99.90;;;;;;5071825;28;20016;-62
2022/11/26 10:32:24;;;;;;;20.13;11.30;;;8.60;99.90;;;;;;5083801;28;20024;-60
2022/11/26 10:35:22;;;;;;;20.80;13.35;;;8.80;99.90;;;;;;5072990;28;20123;-57
2022/11/26 10:38:09;;;;;;;20.20;12.38;;;8.50;99.90;;;;;;5083797;28;20020;-64
2022/11/26 10:40:55;;;;;;;20.05;11.98;;;8.40;99.90;;;;;;5081231;28;20519;-63
2022/11/26 10:43:41;;;;;;;21.05;12.32;;;8.40;99.90;;;;;;5105966;28;20040;-60
2022/11/26 10:46:33;;;;;;;23.65;13.18;;;8.50;99.90;;;;;;5084038;28;20035;-59
2022/11/26 10:49:22;;;;;;;23.42;12.35;;;8.40;99.90;;;;;;5072505;28;20271;-59
2022/11/26 10:52:11;;;;;;;19.63;12.07;;;8.60;99.90;;;;;;5038583;28;1091940;-60
2022/11/26 10:55:18;;;;;;;26.55;12.20;;;8.70;99.90;;;;;;5092147;28;20028;-57
2022/11/26 10:58:25;;;;;;;24.38;12.13;;;8.90;99.90;;;;;;5063345;28;20020;-61
2022/11/26 11:01:14;;;;;;;19.35;11.27;;;9.10;99.90;;;;;;5074560;28;20029;-62
2022/11/26 11:04:00;;;;;;;22.50;11.45;;;9.20;99.90;;;;;;5062743;28;20500;-60
2022/11/26 11:06:48;;;;;;;23.65;11.48;;;9.20;99.90;;;;;;5079265;28;20407;-59
2022/11/26 11:09:36;;;;;;;24.45;13.43;;;9.10;99.90;;;;;;5091136;28;20510;-60
2022/11/26 11:12:25;;;;;;;25.08;12.93;;;9.10;99.90;;;;;;5079958;28;20025;-59
2022/11/26 11:15:19;;;;;;;24.42;12.88;;;9.10;99.90;;;;;;5057641;28;20458;-64
2022/11/26 11:18:12;;;;;;;23.88;12.13;;;9.00;99.90;;;;;;5088558;28;20027;-63
2022/11/26 11:21:02;;;;;;;24.25;13.07;;;9.20;99.90;;;;;;5073964;28;20064;-61
2022/11/26 11:23:48;;;;;;;18.73;12.25;;;9.40;99.90;;;;;;5075060;28;20488;-60
2022/11/26 11:26:42;;;;;;;23.05;12.80;;;9.50;99.90;;;;;;5073378;28;20265;-62
2022/11/26 11:29:28;;;;;;;26.75;12.82;;;9.30;99.90;;;;;;5091403;28;20024;-62
2022/11/26 11:32:36;;;;;;;20.55;12.25;;;9.50;99.90;;;;;;5091824;28;20028;-65
2022/11/26 11:35:25;;;;;;;24.25;11.95;;;9.60;99.90;;;;;;5080099;28;20028;-61
2022/11/26 11:38:22;;;;;;;18.63;10.57;;;9.60;99.90;;;;;;5056268;28;20516;-59
2022/11/26 11:41:19;;;;;;;21.35;12.05;;;9.70;99.90;;;;;;5074088;28;20039;-62
2022/11/26 11:44:22;;;;;;;18.58;12.27;;;9.90;99.90;;;;;;5098475;28;20508;-62
2022/11/26 11:47:33;;;;;;;27.63;12.98;;;9.80;99.90;;;;;;5090446;28;20027;-60
2022/11/26 11:50:22;;;;;;;25.30;12.50;;;9.80;99.90;;;;;;5070884;28;20029;-61
2022/11/26 11:53:13;;;;;;;23.58;15.20;;;9.70;99.90;;;;;;5089576;28;20028;-59
2022/11/26 11:56:21;;;;;;;28.33;14.25;;;9.50;99.90;;;;;;5089619;28;20365;-58
2022/11/26 11:59:19;;;;;;;27.05;13.20;;;9.60;99.90;;;;;;5056766;28;20107;-62
2022/11/26 12:02:33;;;;;;;23.75;14.07;;;9.70;99.90;;;;;;5072020;28;20104;-61
2022/11/26 12:05:30;;;;;;;24.50;13.43;;;9.90;99.90;;;;;;5072163;28;20122;-61
2022/11/26 12:08:29;;;;;;;22.92;13.13;;;10.10;99.90;;;;;;5090170;28;20035;-61
2022/11/26 12:11:46;;;;;;;28.55;14.25;;;10.00;99.90;;;;;;5090197;28;20024;-61
2022/11/26 12:14:46;;;;;;;23.13;13.43;;;10.10;99.90;;;;;;5071926;28;20063;-56
2022/11/26 12:18:10;;;;;;;26.70;13.73;;;10.30;99.90;;;;;;5081491;28;20024;-61
2022/11/26 12:21:07;;;;;;;25.55;12.15;;;10.40;99.90;;;;;;5071632;28;20107;-62
2022/11/26 12:23:56;;;;;;;20.08;11.68;;;10.70;99.90;;;;;;5069608;28;20021;-61
2022/11/26 12:26:50;;;;;;;19.30;12.00;;;10.90;99.90;;;;;;5090723;28;20090;-63
2022/11/26 12:29:47;;;;;;;24.67;11.75;;;11.00;99.90;;;;;;5072476;28;20396;-60
2022/11/26 12:32:36;;;;;;;21.77;11.20;;;11.20;99.90;;;;;;5084155;28;20053;-59
2022/11/26 12:35:53;;;;;;;17.63;9.95;;;11.30;99.90;;;;;;5077478;28;20027;-62
2022/11/26 12:38:46;;;;;;;19.95;10.10;;;11.40;99.90;;;;;;5074638;28;20066;-61
2022/11/26 12:41:45;;;;;;;16.33;8.68;;;11.30;99.90;;;;;;5075053;28;20104;-63
2022/11/26 12:44:36;;;;;;;19.50;9.48;;;11.30;99.90;;;;;;5073822;28;20109;-61
2022/11/26 12:47:37;;;;;;;21.65;8.85;;;11.20;99.90;;;;;;5089248;28;20031;-62
2022/11/26 12:50:33;;;;;;;17.17;9.55;;;11.30;99.90;;;;;;5090139;28;20031;-61
2022/11/26 12:53:41;;;;;;;22.48;9.82;;;11.30;99.90;;;;;;5090558;28;20477;-63
2022/11/26 12:56:40;;;;;;;18.08;8.57;;;11.50;99.90;;;;;;5088416;28;20035;-61
2022/11/26 12:59:46;;;;;;;19.80;9.27;;;11.30;99.90;;;;;;5089311;28;20027;-61
2022/11/26 13:02:39;;;;;;;21.65;9.55;;;10.90;99.90;;;;;;5077960;28;20501;-64
2022/11/26 13:05:56;;;;;;;22.92;9.63;;;10.90;99.90;;;;;;5088148;28;20511;-60
2022/11/26 13:09:03;;;;;;;14.40;8.80;;;11.00;99.90;;;;;;5055888;28;20071;-59
2022/11/26 13:12:14;;;;;;;16.15;8.05;;;11.20;99.90;;;;;;5089470;28;20026;-61
2022/11/26 13:15:12;;;;;;;22.58;9.65;;;11.40;99.90;;;;;;5102244;28;20067;-61
2022/11/26 13:17:59;;;;;;;22.63;10.40;;;11.30;99.90;;;;;;5090206;28;20016;-58
2022/11/26 13:21:29;;;;;;;19.73;9.40;;;10.90;99.90;;;;;;5067738;28;20029;-60
2022/11/26 13:24:44;;;;;;;14.20;8.68;;;11.00;99.90;;;;;;5079405;28;20059;-60
2022/11/26 13:27:38;;;;;;;15.15;8.57;;;10.70;99.90;;;;;;5084019;28;20059;-64
2022/11/26 13:30:37;;;;;;;16.88;8.32;;;10.70;99.90;;;;;;5074820;28;20086;-59
2022/11/26 13:33:50;;;;;;;21.95;9.13;;;10.60;99.90;;;;;;5083050;28;20063;-62
2022/11/26 13:37:20;;;;;;;17.65;9.50;;;10.50;99.90;;;;;;5071407;28;20029;-61
2022/11/26 13:40:17;;;;;;;16.15;8.95;;;10.40;99.90;;;;;;5068966;28;20115;-62
2022/11/26 13:43:15;;;;;;;25.08;8.25;;;10.30;99.90;;;;;;5073270;28;20030;-60
2022/11/26 13:46:04;;;;;;;22.35;8.13;;;10.30;99.90;;;;;;5097491;28;20017;-60
2022/11/26 13:49:09;;;;;;;18.23;8.88;;;10.30;99.90;;;;;;5078950;28;20024;-58
2022/11/26 13:52:19;;;;;;;20.20;9.40;;;10.40;99.90;;;;;;5087480;28;20024;-61
2022/11/26 13:55:21;;;;;;;19.85;8.38;;;10.60;99.90;;;;;;5091256;28;20032;-63
2022/11/26 13:58:16;;;;;;;16.95;9.45;;;10.50;99.90;;;;;;5059822;28;20028;-62
2022/11/26 14:01:29;;;;;;;16.50;9.15;;;10.40;99.90;;;;;;5079701;28;20528;-66
2022/11/26 14:04:22;;;;;;;17.13;7.82;;;10.50;99.90;;;;;;5068507;28;20044;-61
2022/11/26 14:07:11;;;;;;;23.63;8.55;;;11.20;99.90;;;;;;5092176;28;20480;-61
2022/11/26 14:09:59;;;;;;;18.35;8.20;;;12.20;99.90;;;;;;5063607;28;20488;-60
2022/11/26 14:13:04;;;;;;;17.63;7.68;;;12.70;99.90;;;;;;5076837;28;20032;-61
2022/11/26 14:15:51;;;;;;;16.03;8.33;;;13.10;99.80;;;;;;5074040;28;20081;-60
2022/11/26 14:18:52;;;;;;;18.33;8.13;;;12.70;99.90;;;;;;5084236;28;20066;-63
2022/11/26 14:21:57;;;;;;;21.13;8.73;;;12.10;99.90;;;;;;5092207;28;20392;-62
2022/11/26 14:24:56;;;;;;;15.13;8.18;;;11.30;99.90;;;;;;5058776;28;20032;-61
2022/11/26 14:27:54;;;;;;;16.08;8.70;;;10.90;99.90;;;;;;5074389;28;20020;-61
2022/11/26 14:30:42;;;;;;;14.88;8.45;;;10.50;99.90;;;;;;5092073;28;20107;-61
2022/11/26 14:33:30;;;;;;;29.05;9.57;;;10.30;99.90;;;;;;5094159;28;20032;-62
2022/11/26 14:36:27;;;;;;;18.65;9.32;;;10.10;99.90;;;;;;5084956;28;20483;-61
2022/11/26 14:39:15;;;;;;;17.38;9.75;;;10.10;99.90;;;;;;5090479;28;20422;-59